createdAt,value
2019-04-20T00:00:50.621Z,29.70
2019-04-20T00:03:18.073Z,29.80
2019-04-20T00:05:48.935Z,29.90
2019-04-20T00:08:25.134Z,30.10
2019-04-20T00:11:02.613Z,30.20
2019-04-20T00:13:35.588Z,30.30
2019-04-20T00:15:59.930Z,30.40
2019-04-20T00:18:38.488Z,30.50
2019-04-20T00:21:11.002Z,30.70
2019-04-20T00:23:43.064Z,30.80
2019-04-20T00:26:23.238Z,30.90
2019-04-20T00:29:07.518Z,31.10
2019-04-20T00:31:39.311Z,31.30
2019-04-20T00:34:02.684Z,31.50
2019-04-20T00:36:26.285Z,31.70
2019-04-20T00:39:03.722Z,31.90
2019-04-20T00:41:34.265Z,32.20
2019-04-20T00:44:12.232Z,32.40
2019-04-20T00:46:52.749Z,32.60
2019-04-20T00:49:25.378Z,32.70
2019-04-20T00:52:15.252Z,32.90
2019-04-20T00:54:18.082Z,33.20
2019-04-20T00:56:49.878Z,33.40
2019-04-20T00:59:35.285Z,33.70
2019-04-20T01:02:12.665Z,34.00
2019-04-20T01:04:47.640Z,34.40
2019-04-20T01:07:17.612Z,34.70
2019-04-20T01:09:37.066Z,35.00
2019-04-20T01:12:14.802Z,35.30
2019-04-20T01:14:48.508Z,35.60
2019-04-20T01:17:15.040Z,36.00
2019-04-20T01:19:45.325Z,36.40
2019-04-20T01:22:20.583Z,36.90
2019-04-20T01:24:51.596Z,37.20
2019-04-20T01:27:34.959Z,37.50
2019-04-20T01:30:08.967Z,37.70
2019-04-20T01:32:49.235Z,38.00
2019-04-20T01:35:18.140Z,38.20
2019-04-20T01:37:52.928Z,38.40
2019-04-20T01:40:10.844Z,38.60
2019-04-20T01:42:42.480Z,38.80
2019-04-20T01:45:21.447Z,39.00
2019-04-20T01:47:52.334Z,39.00
2019-04-20T01:50:24.484Z,39.10
2019-04-20T01:53:02.031Z,39.40
2019-04-20T01:55:42.456Z,39.60
2019-04-20T01:58:17.833Z,39.80
2019-04-20T02:00:38.260Z,40.00
2019-04-20T02:03:11.437Z,40.30
2019-04-20T02:05:50.385Z,40.50
2019-04-20T02:08:19.619Z,40.70
2019-04-20T02:10:53.720Z,40.90
2019-04-20T02:13:21.602Z,41.30
2019-04-20T02:15:57.843Z,41.40
2019-04-20T02:18:35.888Z,41.70
2019-04-20T02:21:15.108Z,41.80
2019-04-20T02:23:40.874Z,41.80
2019-04-20T02:26:05.245Z,41.80
2019-04-20T02:29:00.894Z,41.80
2019-04-20T02:34:15.385Z,41.70
2019-04-20T02:39:37.560Z,41.70
2019-04-20T02:42:07.924Z,41.90
2019-04-20T02:47:17.345Z,42.40
2019-04-20T02:49:42.049Z,42.40
2019-04-20T02:54:45.123Z,42.10
2019-04-20T02:57:27.250Z,42.10
2019-04-20T03:02:13.333Z,42.60
2019-04-20T03:04:38.226Z,42.80
2019-04-20T03:07:14.912Z,43.10
2019-04-20T03:09:55.469Z,43.40
2019-04-20T03:12:33.367Z,43.50
2019-04-20T03:14:53.978Z,43.50
2019-04-20T03:17:35.367Z,43.20
2019-04-20T03:19:58.266Z,42.80
2019-04-20T03:22:59.915Z,42.30
2019-04-20T03:25:13.529Z,41.70
2019-04-20T03:27:41.033Z,41.00
2019-04-20T03:31:05.629Z,40.50
2019-04-20T03:35:52.869Z,39.70
2019-04-20T03:38:07.525Z,39.40
2019-04-20T03:40:29.634Z,39.10
2019-04-20T03:42:48.664Z,38.90
2019-04-20T03:45:23.079Z,38.70
2019-04-20T03:48:03.194Z,38.60
2019-04-20T03:50:49.208Z,38.60
2019-04-20T03:53:22.656Z,38.60
2019-04-20T03:55:50.089Z,38.70
2019-04-20T03:58:29.176Z,38.70
2019-04-20T04:00:59.810Z,38.70
2019-04-20T04:03:47.206Z,38.70
2019-04-20T04:06:08.584Z,38.60
2019-04-20T04:08:34.989Z,38.70
2019-04-20T04:11:15.991Z,38.80
2019-04-20T04:13:31.843Z,38.90
2019-04-20T04:16:07.922Z,39.10
2019-04-20T04:18:41.042Z,39.30
2019-04-20T04:21:16.140Z,39.40
2019-04-20T04:23:59.983Z,39.60
2019-04-20T04:26:32.318Z,39.60
2019-04-20T04:29:16.636Z,39.50
2019-04-20T04:31:36.252Z,39.50
2019-04-20T04:34:07.387Z,39.40
2019-04-20T04:36:52.308Z,39.30
2019-04-20T04:39:21.175Z,39.40
2019-04-20T04:42:01.796Z,39.50
2019-04-20T04:44:19.271Z,39.40
2019-04-20T04:46:43.530Z,39.40
2019-04-20T04:49:23.679Z,39.40
2019-04-20T04:51:52.351Z,39.40
2019-04-20T04:54:28.927Z,39.50
2019-04-20T04:56:50.476Z,39.50
2019-04-20T04:59:21.771Z,39.50
2019-04-20T05:01:56.554Z,39.50
2019-04-20T05:04:49.626Z,39.50
2019-04-20T05:07:11.236Z,39.60
2019-04-20T05:09:33.867Z,39.70
2019-04-20T05:12:11.871Z,39.80
2019-04-20T05:14:46.037Z,40.00
2019-04-20T05:17:32.896Z,40.10
2019-04-20T05:20:02.533Z,40.20
2019-04-20T05:22:40.123Z,40.20
2019-04-20T05:25:10.666Z,40.40
2019-04-20T05:27:47.930Z,40.50
2019-04-20T05:29:57.041Z,40.50
2019-04-20T05:32:37.885Z,40.50
2019-04-20T05:35:21.486Z,40.30
2019-04-20T05:38:02.654Z,40.20
2019-04-20T05:40:30.718Z,40.20
2019-04-20T05:43:03.141Z,40.20
2019-04-20T05:45:28.831Z,40.40
2019-04-20T05:48:02.588Z,40.60
2019-04-20T05:50:37.716Z,40.70
2019-04-20T05:53:14.468Z,40.80
2019-04-20T05:55:43.064Z,40.80
2019-04-20T05:58:23.350Z,40.80
2019-04-20T06:00:57.128Z,40.80
2019-04-20T06:03:20.245Z,40.80
2019-04-20T06:06:06.178Z,40.80
2019-04-20T06:08:43.551Z,40.70
2019-04-20T06:11:05.674Z,40.40
2019-04-20T06:13:32.644Z,40.20
2019-04-20T06:16:07.411Z,40.00
2019-04-20T06:18:40.186Z,39.80
2019-04-20T06:21:24.982Z,39.80
2019-04-20T06:23:56.700Z,39.90
2019-04-20T06:28:55.273Z,40.00
2019-04-20T06:31:39.797Z,40.10
2019-04-20T06:36:47.519Z,40.50
2019-04-20T06:39:20.272Z,40.40
2019-04-20T06:42:53.890Z,40.30
2019-04-20T06:44:30.321Z,40.00
2019-04-20T06:49:33.298Z,40.00
2019-04-20T06:52:04.622Z,40.10
2019-04-20T06:54:35.925Z,40.20
2019-04-20T06:57:10.155Z,40.30
2019-04-20T06:59:44.227Z,40.50
2019-04-20T07:04:52.117Z,40.90
2019-04-20T07:10:02.457Z,41.00
2019-04-20T07:12:23.034Z,41.10
2019-04-20T07:14:46.966Z,41.00
2019-04-20T07:17:40.704Z,40.90
2019-04-20T07:20:05.629Z,40.80
2019-04-20T07:22:37.551Z,40.70
2019-04-20T07:25:13.991Z,40.60
2019-04-20T07:27:49.000Z,40.50
2019-04-20T07:30:17.740Z,40.50
2019-04-20T07:35:26.305Z,40.40
2019-04-20T07:40:35.629Z,40.30
2019-04-20T07:43:14.703Z,40.40
2019-04-20T07:45:33.188Z,40.30
2019-04-20T07:48:15.041Z,40.30
2019-04-20T07:50:37.444Z,40.30
2019-04-20T07:53:12.290Z,40.30
2019-04-20T07:55:56.308Z,40.30
2019-04-20T07:58:13.421Z,40.20
2019-04-20T08:01:04.291Z,40.20
2019-04-20T08:03:33.649Z,40.10
2019-04-20T08:05:56.851Z,40.10
2019-04-20T08:08:35.013Z,40.10
2019-04-20T08:11:10.215Z,40.00
2019-04-20T08:13:46.780Z,40.00
2019-04-20T08:16:16.529Z,39.80
2019-04-20T08:18:51.410Z,39.70
2019-04-20T08:21:22.797Z,39.60
2019-04-20T08:23:54.043Z,39.60
2019-04-20T08:26:14.140Z,39.50
2019-04-20T08:28:51.034Z,39.40
2019-04-20T08:31:29.775Z,39.40
2019-04-20T08:34:20.191Z,39.40
2019-04-20T08:36:47.835Z,39.50
2019-04-20T08:41:50.388Z,39.70
2019-04-20T08:44:42.631Z,39.80
2019-04-20T08:47:03.867Z,39.80
2019-04-20T08:49:29.565Z,39.90
2019-04-20T08:52:11.359Z,39.90
2019-04-20T08:54:31.001Z,40.00
2019-04-20T08:56:51.521Z,40.00
2019-04-20T08:59:18.900Z,40.00
2019-04-20T09:01:51.094Z,40.00
2019-04-20T09:04:33.766Z,39.90
2019-04-20T09:07:05.612Z,39.90
2019-04-20T09:09:49.531Z,39.80
2019-04-20T09:12:14.718Z,39.80
2019-04-20T09:14:36.787Z,39.70
2019-04-20T09:17:12.297Z,39.60
2019-04-20T09:19:52.815Z,39.60
2019-04-20T09:22:28.299Z,39.70
2019-04-20T09:25:16.130Z,39.60
2019-04-20T09:27:29.461Z,39.50
2019-04-20T09:30:16.043Z,39.50
2019-04-20T09:32:39.539Z,39.40
2019-04-20T09:35:20.655Z,39.40
2019-04-20T09:37:55.331Z,39.30
2019-04-20T09:40:29.310Z,39.10
2019-04-20T09:42:42.667Z,39.10
2019-04-20T09:45:23.454Z,39.00
2019-04-20T09:47:52.876Z,38.90
2019-04-20T09:50:38.694Z,38.90
2019-04-20T09:53:10.099Z,38.80
2019-04-20T09:55:38.213Z,38.80
2019-04-20T09:58:14.825Z,38.80
2019-04-20T10:00:53.035Z,38.80
2019-04-20T10:03:08.694Z,38.80
2019-04-20T10:05:41.215Z,38.80
2019-04-20T10:08:13.700Z,38.80
2019-04-20T10:10:47.238Z,38.80
2019-04-20T10:13:19.415Z,38.80
2019-04-20T10:15:51.100Z,38.80
2019-04-20T10:18:21.876Z,38.70
2019-04-20T10:20:53.888Z,38.70
2019-04-20T10:23:26.779Z,38.60
2019-04-20T10:25:58.933Z,38.60
2019-04-20T10:28:31.709Z,38.50
2019-04-20T10:31:04.257Z,38.40
2019-04-20T10:33:37.415Z,38.40
2019-04-20T10:36:11.979Z,38.30
2019-04-20T10:38:44.370Z,38.20
2019-04-20T10:41:29.734Z,38.20
2019-04-20T10:43:48.991Z,38.10
2019-04-20T10:46:20.826Z,38.00
2019-04-20T10:48:54.215Z,38.00
2019-04-20T10:51:25.916Z,37.90
2019-04-20T10:53:58.318Z,37.90
2019-04-20T10:56:29.604Z,37.80
2019-04-20T10:59:01.525Z,37.70
2019-04-20T11:01:33.665Z,37.60
2019-04-20T11:04:05.169Z,37.50
2019-04-20T11:06:38.567Z,37.40
2019-04-20T11:09:10.930Z,37.30
2019-04-20T11:11:42.212Z,37.20
2019-04-20T11:14:21.153Z,37.10
2019-04-20T11:16:46.670Z,37.00
2019-04-20T11:19:18.988Z,36.90
2019-04-20T11:21:50.661Z,36.80
2019-04-20T11:24:20.869Z,36.70
2019-04-20T11:26:54.051Z,36.60
2019-04-20T11:29:26.310Z,36.50
2019-04-20T11:31:59.129Z,36.30
2019-04-20T11:34:33.988Z,36.20
2019-04-20T11:37:04.388Z,36.10
2019-04-20T11:39:37.019Z,35.90
2019-04-20T11:42:09.843Z,35.80
2019-04-20T11:44:42.428Z,35.70
2019-04-20T11:47:14.736Z,35.60
2019-04-20T11:49:46.540Z,35.50
2019-04-20T11:52:18.364Z,35.50
2019-04-20T11:54:50.420Z,35.40
2019-04-20T11:57:22.216Z,35.30
2019-04-20T11:59:53.329Z,35.20
2019-04-20T12:02:32.168Z,35.10
2019-04-20T12:05:16.706Z,35.10
2019-04-20T12:07:37.821Z,35.00
2019-04-20T12:10:15.170Z,34.90
2019-04-20T12:12:47.305Z,34.80
2019-04-20T12:15:16.816Z,34.70
2019-04-20T12:17:49.515Z,34.70
2019-04-20T12:20:22.741Z,34.60
2019-04-20T12:22:54.643Z,34.50
2019-04-20T12:25:25.910Z,34.50
2019-04-20T12:27:58.998Z,34.40
2019-04-20T12:30:30.000Z,34.30
2019-04-20T12:33:01.905Z,34.10
2019-04-20T12:35:32.183Z,34.00
2019-04-20T12:38:03.459Z,33.90
2019-04-20T12:40:35.440Z,33.80
2019-04-20T12:43:07.285Z,33.70
2019-04-20T12:45:39.898Z,33.60
2019-04-20T12:48:11.708Z,33.60
2019-04-20T12:50:43.754Z,33.40
2019-04-20T12:53:16.898Z,33.40
2019-04-20T12:55:48.456Z,33.30
2019-04-20T12:58:20.869Z,33.20
2019-04-20T13:00:54.495Z,33.10
2019-04-20T13:03:25.812Z,33.10
2019-04-20T13:05:58.168Z,33.00
2019-04-20T13:08:37.979Z,33.00
2019-04-20T13:11:06.528Z,33.00
2019-04-20T13:13:40.710Z,33.00
2019-04-20T13:16:14.339Z,32.90
2019-04-20T13:18:47.662Z,32.90
2019-04-20T13:21:19.379Z,32.80
2019-04-20T13:23:53.195Z,32.80
2019-04-20T13:26:25.191Z,32.80
2019-04-20T13:28:56.832Z,32.70
2019-04-20T13:31:29.529Z,32.70
2019-04-20T13:34:01.474Z,32.70
2019-04-20T13:36:34.450Z,32.70
2019-04-20T13:39:08.226Z,32.60
2019-04-20T13:41:40.236Z,32.60
2019-04-20T13:44:11.558Z,32.50
2019-04-20T13:46:43.390Z,32.50
2019-04-20T13:49:15.239Z,32.50
2019-04-20T13:51:46.544Z,32.40
2019-04-20T13:54:22.977Z,32.40
2019-04-20T13:56:52.989Z,32.40
2019-04-20T13:59:27.961Z,32.40
2019-04-20T14:02:01.312Z,32.40
2019-04-20T14:04:36.875Z,32.40
2019-04-20T14:07:09.367Z,32.40
2019-04-20T14:09:41.875Z,32.50
2019-04-20T14:12:22.198Z,32.60
2019-04-20T14:14:46.925Z,32.70
2019-04-20T14:17:19.170Z,32.70
2019-04-20T14:19:50.534Z,32.80
2019-04-20T14:22:22.840Z,32.80
2019-04-20T14:24:55.167Z,32.80
2019-04-20T14:27:26.692Z,32.80
2019-04-20T14:29:59.134Z,32.80
2019-04-20T14:32:30.997Z,32.80
2019-04-20T14:35:03.102Z,32.80
2019-04-20T14:37:35.894Z,32.80
2019-04-20T14:40:10.314Z,32.80
2019-04-20T14:42:46.347Z,32.80
2019-04-20T14:45:18.475Z,32.80
2019-04-20T14:47:49.930Z,32.80
2019-04-20T14:50:23.325Z,32.80
2019-04-20T14:52:55.644Z,32.80
2019-04-20T14:55:27.308Z,32.80
2019-04-20T14:58:01.488Z,32.80
2019-04-20T15:00:37.371Z,32.80
2019-04-20T15:03:10.137Z,32.90
2019-04-20T15:05:43.794Z,32.80
2019-04-20T15:08:16.434Z,32.80
2019-04-20T15:10:49.033Z,32.80
2019-04-20T15:13:20.652Z,32.80
2019-04-20T15:15:52.707Z,32.80
2019-04-20T15:18:27.194Z,32.90
2019-04-20T15:20:59.800Z,32.90
2019-04-20T15:23:31.378Z,32.90
2019-04-20T15:26:02.910Z,32.90
2019-04-20T15:28:34.654Z,32.90
2019-04-20T15:31:06.475Z,33.00
2019-04-20T15:33:39.049Z,33.00
2019-04-20T15:36:10.794Z,33.00
2019-04-20T15:38:42.985Z,33.00
2019-04-20T15:41:15.630Z,33.00
2019-04-20T15:43:48.994Z,33.10
2019-04-20T15:46:21.390Z,33.10
2019-04-20T15:48:53.342Z,33.20
2019-04-20T15:51:23.707Z,33.30
2019-04-20T15:53:55.626Z,33.30
2019-04-20T15:56:26.868Z,33.30
2019-04-20T15:58:58.733Z,33.40
2019-04-20T16:01:30.401Z,33.30
2019-04-20T16:04:03.627Z,33.40
2019-04-20T16:06:35.148Z,33.40
2019-04-20T16:09:08.329Z,33.40
2019-04-20T16:11:39.434Z,33.30
2019-04-20T16:14:11.022Z,33.30
2019-04-20T16:16:42.729Z,33.30
2019-04-20T16:19:28.186Z,33.20
2019-04-20T16:21:47.874Z,33.20
2019-04-20T16:24:22.249Z,33.20
2019-04-20T16:26:55.813Z,33.20
2019-04-20T16:29:27.097Z,33.10
2019-04-20T16:31:58.793Z,33.00
2019-04-20T16:34:31.663Z,33.00
2019-04-20T16:37:04.215Z,33.00
2019-04-20T16:39:36.584Z,33.00
2019-04-20T16:42:09.486Z,32.90
2019-04-20T16:44:41.174Z,32.90
2019-04-20T16:47:12.390Z,32.90
2019-04-20T16:49:43.528Z,32.80
2019-04-20T16:52:15.283Z,32.80
2019-04-20T16:54:47.887Z,32.80
2019-04-20T16:57:19.807Z,32.80
2019-04-20T16:59:54.431Z,32.80
2019-04-20T17:02:24.511Z,32.80
2019-04-20T17:04:56.586Z,32.80
2019-04-20T17:07:29.038Z,32.80
2019-04-20T17:10:02.209Z,32.70
2019-04-20T17:12:33.622Z,32.70
2019-04-20T17:15:07.470Z,32.70
2019-04-20T17:17:39.941Z,32.60
2019-04-20T17:20:13.745Z,32.60
2019-04-20T17:22:46.297Z,32.60
2019-04-20T17:25:19.648Z,32.60
2019-04-20T17:27:53.074Z,32.60
2019-04-20T17:30:27.477Z,32.60
2019-04-20T17:33:00.472Z,32.60
2019-04-20T17:35:43.489Z,32.60
2019-04-20T17:38:06.778Z,32.60
2019-04-20T17:40:59.152Z,32.60
2019-04-20T17:43:20.124Z,32.60
2019-04-20T17:45:57.642Z,32.50
2019-04-20T17:48:27.612Z,32.50
2019-04-20T17:51:12.276Z,32.50
2019-04-20T17:53:37.661Z,32.50
2019-04-20T17:55:57.279Z,32.40
2019-04-20T17:58:32.686Z,32.40
2019-04-20T18:01:03.608Z,32.30
2019-04-20T18:04:11.161Z,32.20
2019-04-20T18:06:25.412Z,32.20
2019-04-20T18:08:59.893Z,32.10
2019-04-20T18:11:21.287Z,32.10
2019-04-20T18:13:58.166Z,32.00
2019-04-20T18:16:46.898Z,32.00
2019-04-20T18:19:05.666Z,31.90
2019-04-20T18:21:32.843Z,31.90
2019-04-20T18:24:13.732Z,31.90
2019-04-20T18:26:51.948Z,31.80
2019-04-20T18:29:35.422Z,31.70
2019-04-20T18:31:44.986Z,31.70
2019-04-20T18:34:22.708Z,31.70
2019-04-20T18:36:53.344Z,31.60
2019-04-20T18:39:37.417Z,31.60
2019-04-20T18:42:11.057Z,31.40
2019-04-20T18:44:55.802Z,31.40
2019-04-20T18:47:23.604Z,31.40
2019-04-20T18:49:49.143Z,31.40
2019-04-20T18:52:09.696Z,31.30
2019-04-20T18:54:44.263Z,31.30
2019-04-20T18:57:19.584Z,31.30
2019-04-20T18:59:52.157Z,31.20
2019-04-20T19:02:26.543Z,31.20
2019-04-20T19:04:53.341Z,31.20
2019-04-20T19:07:25.717Z,31.10
2019-04-20T19:10:05.466Z,31.10
2019-04-20T19:12:42.434Z,31.10
2019-04-20T19:15:29.189Z,31.10
2019-04-20T19:17:53.784Z,31.10
2019-04-20T19:20:15.985Z,31.00
2019-04-20T19:22:48.217Z,30.90
2019-04-20T19:25:26.111Z,30.90
2019-04-20T19:27:55.849Z,30.80
2019-04-20T19:30:35.455Z,30.80
2019-04-20T19:33:14.913Z,30.80
2019-04-20T19:35:42.963Z,30.70
2019-04-20T19:38:10.290Z,30.60
2019-04-20T19:40:47.814Z,30.60
2019-04-20T19:43:15.958Z,30.50
2019-04-20T19:46:24.134Z,30.40
2019-04-20T19:48:28.140Z,30.30
2019-04-20T19:51:25.511Z,30.20
2019-04-20T19:53:36.588Z,30.10
2019-04-20T19:56:03.721Z,30.00
2019-04-20T19:58:34.425Z,30.00
2019-04-20T20:00:58.173Z,29.90
2019-04-20T20:03:29.925Z,29.90
2019-04-20T20:06:01.523Z,29.80
2019-04-20T20:08:35.807Z,29.80
2019-04-20T20:11:08.420Z,29.70
2019-04-20T20:13:43.936Z,29.60
2019-04-20T20:16:16.931Z,29.60
2019-04-20T20:18:56.179Z,29.50
2019-04-20T20:21:27.038Z,29.50
2019-04-20T20:23:50.060Z,29.40
2019-04-20T20:26:30.494Z,29.40
2019-04-20T20:29:07.250Z,29.30
2019-04-20T20:31:43.338Z,29.30
2019-04-20T20:34:10.655Z,29.20
2019-04-20T20:36:38.883Z,29.20
2019-04-20T20:39:11.088Z,29.10
2019-04-20T20:41:49.154Z,29.10
2019-04-20T20:44:15.671Z,29.10
2019-04-20T20:46:53.418Z,29.00
2019-04-20T20:49:27.675Z,29.00
2019-04-20T20:52:09.728Z,29.00
2019-04-20T20:54:34.650Z,28.90
2019-04-20T20:56:59.494Z,28.90
2019-04-20T20:59:34.809Z,28.80
2019-04-20T21:02:06.499Z,28.80
2019-04-20T21:04:29.995Z,28.70
2019-04-20T21:07:02.733Z,28.70
2019-04-20T21:09:35.391Z,28.70
2019-04-20T21:12:12.664Z,28.70
2019-04-20T21:14:42.108Z,28.60
2019-04-20T21:17:17.835Z,28.60
2019-04-20T21:20:03.517Z,28.50
2019-04-20T21:22:33.828Z,28.50
2019-04-20T21:24:53.080Z,28.40
2019-04-20T21:27:25.835Z,28.30
2019-04-20T21:30:00.023Z,28.30
2019-04-20T21:32:33.596Z,28.30
2019-04-20T21:35:06.950Z,28.20
2019-04-20T21:37:37.024Z,28.10
2019-04-20T21:40:22.772Z,28.00
2019-04-20T21:42:49.962Z,28.00
2019-04-20T21:45:22.809Z,27.90
2019-04-20T21:47:48.343Z,27.90
2019-04-20T21:50:34.407Z,27.80
2019-04-20T21:52:58.566Z,27.80
2019-04-20T21:55:25.934Z,27.80
2019-04-20T21:58:00.467Z,27.80
2019-04-20T22:00:35.075Z,27.70
2019-04-20T22:03:07.778Z,27.70
2019-04-20T22:05:38.157Z,27.70
2019-04-20T22:08:14.045Z,27.70
2019-04-20T22:10:42.882Z,27.70
2019-04-20T22:13:19.673Z,27.70
2019-04-20T22:15:55.744Z,27.60
2019-04-20T22:18:23.128Z,27.70
2019-04-20T22:21:03.572Z,27.70
2019-04-20T22:23:43.362Z,27.70
2019-04-20T22:26:10.226Z,27.70
2019-04-20T22:28:29.947Z,27.70
2019-04-20T22:31:02.198Z,27.70
2019-04-20T22:33:37.122Z,27.70
2019-04-20T22:36:09.432Z,27.60
2019-04-20T22:38:47.520Z,27.50
2019-04-20T22:41:18.041Z,27.50
2019-04-20T22:43:48.296Z,27.50
2019-04-20T22:46:26.817Z,27.40
2019-04-20T22:49:07.119Z,27.50
2019-04-20T22:51:39.867Z,27.50
2019-04-20T22:54:17.224Z,27.50
2019-04-20T22:56:43.787Z,27.60
2019-04-20T22:59:09.292Z,27.60
2019-04-20T23:01:40.767Z,27.60
2019-04-20T23:04:08.759Z,27.60
2019-04-20T23:06:45.830Z,27.60
2019-04-20T23:09:14.966Z,27.60
2019-04-20T23:11:47.222Z,27.70
2019-04-20T23:14:18.447Z,27.70
2019-04-20T23:16:53.509Z,27.80
2019-04-20T23:19:34.346Z,27.80
2019-04-20T23:21:59.657Z,27.90
2019-04-20T23:24:29.142Z,28.10
2019-04-20T23:27:04.455Z,28.20
2019-04-20T23:29:37.947Z,28.30
2019-04-20T23:32:09.819Z,28.50
2019-04-20T23:34:40.818Z,28.60
2019-04-20T23:37:19.569Z,28.80
2019-04-20T23:39:47.277Z,28.80
2019-04-20T23:42:19.835Z,28.90
2019-04-20T23:44:57.663Z,29.00
2019-04-20T23:47:27.881Z,29.10
2019-04-20T23:50:17.860Z,29.30
2019-04-20T23:52:53.406Z,29.70
2019-04-20T23:55:10.274Z,30.00
2019-04-20T23:57:41.874Z,30.40
